Time,TemperatureF,DewpointF,PressureIn,WindDirection,WindDirectionDegrees,WindSpeedMPH,WindSpeedGustMPH,Humidity,HourlyPrecipIn,Conditions,Clouds,dailyrainin,SoftwareType,DateUTC
2013-02-19 00:03:00,20.0,-99.9,-100.00,West,268,0.0,0.0,-999,0.00,,,0.26,,2013-02-19 06:03:00,
2013-02-19 00:12:00,20.0,-99.9,-100.00,West,268,0.0,0.0,-999,0.00,,,0.26,,2013-02-19 06:12:00,
2013-02-19 00:22:00,20.0,-99.9,-100.00,West,268,0.0,0.0,-999,0.00,,,0.26,,2013-02-19 06:22:00,
2013-02-19 00:33:00,19.0,-99.9,-100.00,West,261,0.0,0.0,-999,0.00,,,0.26,,2013-02-19 06:33:00,
2013-02-19 00:42:00,19.0,-99.9,-100.00,West,261,0.0,0.0,-999,0.00,,,0.26,,2013-02-19 06:42:00,
2013-02-19 00:53:00,19.0,-99.9,-100.00,West,261,0.0,0.0,-999,0.00,,,0.26,,2013-02-19 06:53:00,
2013-02-19 01:02:00,18.0,-99.9,-100.00,West,261,0.0,0.0,-999,0.00,,,0.26,,2013-02-19 07:02:00,
2013-02-19 01:12:00,18.0,-99.9,-100.00,West,261,0.0,0.0,-999,0.00,,,0.26,,2013-02-19 07:12:00,
2013-02-19 01:22:00,18.0,-99.9,-100.00,West,261,0.0,0.0,-999,0.00,,,0.26,,2013-02-19 07:22:00,
2013-02-19 01:33:00,18.0,-99.9,-100.00,West,272,0.0,0.0,-999,0.00,,,0.26,,2013-02-19 07:33:00,
2013-02-19 01:42:00,18.0,-99.9,-100.00,West,272,0.0,0.0,-999,0.00,,,0.26,,2013-02-19 07:42:00,
2013-02-19 01:52:00,18.0,-99.9,-100.00,West,272,0.0,0.0,-999,0.00,,,0.26,,2013-02-19 07:52:00,
2013-02-19 02:02:00,16.0,-99.9,-100.00,WSW,255,0.0,0.0,-999,0.00,,,0.26,,2013-02-19 08:02:00,
2013-02-19 02:12:00,16.0,-99.9,-100.00,WSW,255,0.0,0.0,-999,0.00,,,0.26,,2013-02-19 08:12:00,
2013-02-19 02:22:00,16.0,-99.9,-100.00,WSW,255,0.0,0.0,-999,0.00,,,0.26,,2013-02-19 08:22:00,
2013-02-19 02:32:00,16.0,-99.9,-100.00,West,277,12.0,30.0,-999,0.00,,,0.26,,2013-02-19 08:32:00,
2013-02-19 02:42:00,16.0,-99.9,-100.00,West,277,12.0,30.0,-999,0.00,,,0.26,,2013-02-19 08:42:00,
2013-02-19 02:52:00,16.0,-99.9,-100.00,West,277,12.0,30.0,-999,0.00,,,0.26,,2013-02-19 08:52:00,
2013-02-19 03:02:00,15.0,-99.9,-100.00,West,275,21.0,30.0,-999,0.00,,,0.26,,2013-02-19 09:02:00,
2013-02-19 03:11:00,15.0,-99.9,-100.00,West,275,21.0,30.0,-999,0.00,,,0.26,,2013-02-19 09:11:00,
2013-02-19 03:22:00,15.0,-99.9,-100.00,West,275,21.0,30.0,-999,0.00,,,0.26,,2013-02-19 09:22:00,
2013-02-19 03:32:00,14.0,-99.9,-100.00,West,267,17.0,24.0,-999,0.00,,,0.26,,2013-02-19 09:32:00,
2013-02-19 03:42:00,14.0,-99.9,-100.00,West,267,17.0,24.0,-999,0.00,,,0.26,,2013-02-19 09:42:00,
2013-02-19 03:53:00,14.0,-99.9,-100.00,West,267,17.0,24.0,-999,0.00,,,0.26,,2013-02-19 09:53:00,
2013-02-19 04:02:00,14.0,-99.9,-100.00,West,275,16.0,22.0,-999,0.00,,,-99.99,,2013-02-19 10:02:00,
2013-02-19 04:11:00,14.0,-99.9,-100.00,West,275,16.0,22.0,-999,0.00,,,-99.99,,2013-02-19 10:11:00,
2013-02-19 04:22:00,14.0,-99.9,-100.00,West,275,16.0,22.0,-999,0.00,,,-99.99,,2013-02-19 10:22:00,
2013-02-19 04:32:00,13.0,-99.9,-100.00,West,265,19.0,27.0,-999,0.00,,,0.26,,2013-02-19 10:32:00,
2013-02-19 04:42:00,13.0,-99.9,-100.00,West,265,19.0,27.0,-999,0.00,,,0.26,,2013-02-19 10:42:00,
2013-02-19 04:52:00,13.0,-99.9,-100.00,West,265,19.0,27.0,-999,0.00,,,0.26,,2013-02-19 10:52:00,
2013-02-19 05:02:00,13.0,-99.9,-100.00,West,265,17.0,27.0,-999,0.00,,,0.26,,2013-02-19 11:02:00,
2013-02-19 05:12:00,13.0,-99.9,-100.00,West,265,17.0,27.0,-999,0.00,,,0.26,,2013-02-19 11:12:00,
2013-02-19 05:22:00,13.0,-99.9,-100.00,West,265,17.0,27.0,-999,0.00,,,0.26,,2013-02-19 11:22:00,
2013-02-19 05:32:00,12.0,-99.9,-100.00,West,269,19.0,32.0,-999,0.00,,,0.26,,2013-02-19 11:32:00,
2013-02-19 05:42:00,12.0,-99.9,-100.00,West,269,19.0,32.0,-999,0.00,,,0.26,,2013-02-19 11:42:00,
2013-02-19 05:52:00,12.0,-99.9,-100.00,West,269,19.0,32.0,-999,0.00,,,0.26,,2013-02-19 11:52:00,
2013-02-19 06:02:00,11.0,-99.9,-100.00,West,274,17.0,23.0,-999,0.00,,,0.26,,2013-02-19 12:02:00,
2013-02-19 06:12:00,11.0,-99.9,-100.00,West,274,17.0,23.0,-999,0.00,,,0.26,,2013-02-19 12:12:00,
2013-02-19 06:22:00,11.0,-99.9,-100.00,West,274,17.0,23.0,-999,0.00,,,0.26,,2013-02-19 12:22:00,
2013-02-19 06:33:00,10.0,-99.9,-100.00,West,261,16.0,24.0,-999,0.00,,,0.26,,2013-02-19 12:33:00,
2013-02-19 06:42:00,10.0,-99.9,-100.00,West,261,16.0,24.0,-999,0.00,,,0.26,,2013-02-19 12:42:00,
2013-02-19 06:53:00,10.0,-99.9,-100.00,West,261,16.0,24.0,-999,0.00,,,0.26,,2013-02-19 12:53:00,
2013-02-19 07:02:00,9.0,-99.9,-100.00,West,268,16.0,25.0,-999,0.00,,,0.26,,2013-02-19 13:02:00,
2013-02-19 07:11:00,9.0,-99.9,-100.00,West,268,16.0,25.0,-999,0.00,,,0.26,,2013-02-19 13:11:00,
2013-02-19 07:22:00,9.0,-99.9,-100.00,West,268,16.0,25.0,-999,0.00,,,0.26,,2013-02-19 13:22:00,
2013-02-19 07:32:00,9.0,-99.9,-100.00,West,267,17.0,27.0,-999,0.00,,,0.26,,2013-02-19 13:32:00,
2013-02-19 07:42:00,9.0,-99.9,-100.00,West,267,17.0,27.0,-999,0.00,,,0.26,,2013-02-19 13:42:00,
2013-02-19 07:52:00,9.0,-99.9,-100.00,West,267,17.0,27.0,-999,0.00,,,0.26,,2013-02-19 13:52:00,
2013-02-19 08:02:00,8.0,-99.9,-100.00,West,273,24.0,35.0,-999,0.00,,,0.26,,2013-02-19 14:02:00,
2013-02-19 08:12:00,8.0,-99.9,-100.00,West,273,24.0,35.0,-999,0.00,,,0.26,,2013-02-19 14:12:00,
2013-02-19 08:22:00,8.0,-99.9,-100.00,West,273,24.0,35.0,-999,0.00,,,0.26,,2013-02-19 14:22:00,
2013-02-19 08:33:00,8.0,-99.9,-100.00,West,271,15.0,21.0,-999,0.00,,,0.26,,2013-02-19 14:33:00,
2013-02-19 08:42:00,8.0,-99.9,-100.00,West,271,15.0,21.0,-999,0.00,,,0.26,,2013-02-19 14:42:00,
2013-02-19 08:52:00,8.0,-99.9,-100.00,West,271,15.0,21.0,-999,0.00,,,0.26,,2013-02-19 14:52:00,
2013-02-19 09:02:00,8.0,-99.9,-100.00,West,263,16.0,27.0,-999,0.00,,,0.26,,2013-02-19 15:02:00,
2013-02-19 09:11:00,8.0,-99.9,-100.00,West,263,16.0,27.0,-999,0.00,,,0.26,,2013-02-19 15:11:00,
2013-02-19 09:22:00,8.0,-99.9,-100.00,West,263,16.0,27.0,-999,0.00,,,0.26,,2013-02-19 15:22:00,
2013-02-19 09:30:00,9.0,-99.9,-100.00,West,279,15.0,21.0,-999,0.00,,,0.26,,2013-02-19 15:30:00,
2013-02-19 09:32:00,8.0,-99.9,-100.00,West,277,18.0,26.0,-999,0.00,,,0.26,,2013-02-19 15:32:00,
2013-02-19 09:42:00,8.0,-99.9,-100.00,West,277,18.0,26.0,-999,0.00,,,0.26,,2013-02-19 15:42:00,
2013-02-19 09:52:00,8.0,-99.9,-100.00,West,277,18.0,26.0,-999,0.00,,,0.26,,2013-02-19 15:52:00,
2013-02-19 10:02:00,9.0,-99.9,-100.00,West,279,15.0,21.0,-999,0.00,,,0.26,,2013-02-19 16:02:00,
2013-02-19 10:12:00,9.0,-99.9,-100.00,West,279,15.0,21.0,-999,0.00,,,0.26,,2013-02-19 16:12:00,
2013-02-19 10:22:00,9.0,-99.9,-100.00,West,279,15.0,21.0,-999,0.00,,,0.26,,2013-02-19 16:22:00,
2013-02-19 11:01:00,9.0,-99.9,-100.00,West,273,14.0,24.0,-999,0.00,,,0.26,,2013-02-19 17:01:00,
2013-02-19 11:11:00,9.0,-99.9,-100.00,West,273,14.0,24.0,-999,0.00,,,0.26,,2013-02-19 17:11:00,
2013-02-19 11:22:00,9.0,-99.9,-100.00,West,273,14.0,24.0,-999,0.00,,,0.26,,2013-02-19 17:22:00,
2013-02-19 11:32:00,10.0,-99.9,-100.00,West,262,15.0,23.0,-999,0.00,,,0.26,,2013-02-19 17:32:00,
2013-02-19 11:42:00,10.0,-99.9,-100.00,West,262,15.0,23.0,-999,0.00,,,0.26,,2013-02-19 17:42:00,
2013-02-19 11:52:00,10.0,-99.9,-100.00,West,262,15.0,23.0,-999,0.00,,,0.26,,2013-02-19 17:52:00,
2013-02-19 12:02:00,11.0,-99.9,-100.00,West,270,15.0,29.0,-999,0.00,,,0.26,,2013-02-19 18:02:00,
2013-02-19 12:11:00,11.0,-99.9,-100.00,West,270,15.0,29.0,-999,0.00,,,0.26,,2013-02-19 18:11:00,
2013-02-19 12:22:00,11.0,-99.9,-100.00,West,270,15.0,29.0,-999,0.00,,,0.26,,2013-02-19 18:22:00,
2013-02-19 12:32:00,12.0,-99.9,-100.00,West,274,17.0,21.0,-999,0.00,,,0.26,,2013-02-19 18:32:00,
2013-02-19 12:42:00,12.0,-99.9,-100.00,West,274,17.0,21.0,-999,0.00,,,0.26,,2013-02-19 18:42:00,
2013-02-19 12:52:00,12.0,-99.9,-100.00,West,274,17.0,21.0,-999,0.00,,,0.26,,2013-02-19 18:52:00,
2013-02-19 13:01:00,13.0,-99.9,-100.00,West,281,17.0,24.0,-999,0.00,,,0.26,,2013-02-19 19:01:00,
2013-02-19 13:11:00,13.0,-99.9,-100.00,West,281,17.0,24.0,-999,0.00,,,0.26,,2013-02-19 19:11:00,
2013-02-19 13:22:00,13.0,-99.9,-100.00,West,281,17.0,24.0,-999,0.00,,,0.26,,2013-02-19 19:22:00,
2013-02-19 13:32:00,15.0,-99.9,-100.00,West,271,15.0,23.0,-999,0.00,,,0.26,,2013-02-19 19:32:00,
2013-02-19 13:42:00,15.0,-99.9,-100.00,West,271,15.0,23.0,-999,0.00,,,0.26,,2013-02-19 19:42:00,
2013-02-19 13:52:00,15.0,-99.9,-100.00,West,271,15.0,23.0,-999,0.00,,,0.26,,2013-02-19 19:52:00,
2013-02-19 14:02:00,16.0,-99.9,-100.00,West,270,17.0,20.0,-999,0.00,,,0.26,,2013-02-19 20:02:00,
2013-02-19 14:12:00,16.0,-99.9,-100.00,West,270,17.0,20.0,-999,0.00,,,0.26,,2013-02-19 20:12:00,
2013-02-19 14:22:00,16.0,-99.9,-100.00,West,270,17.0,20.0,-999,0.00,,,0.26,,2013-02-19 20:22:00,
2013-02-19 14:30:00,18.0,-99.9,-100.00,West,263,13.0,17.0,-999,0.00,,,0.26,,2013-02-19 20:30:00,
2013-02-19 14:32:00,17.0,-99.9,-100.00,West,261,16.0,21.0,-999,0.00,,,0.26,,2013-02-19 20:32:00,
2013-02-19 14:42:00,17.0,-99.9,-100.00,West,261,16.0,21.0,-999,0.00,,,0.26,,2013-02-19 20:42:00,
2013-02-19 14:52:00,17.0,-99.9,-100.00,West,261,16.0,21.0,-999,0.00,,,0.26,,2013-02-19 20:52:00,
2013-02-19 15:02:00,18.0,-99.9,-100.00,West,263,13.0,17.0,-999,0.00,,,0.26,,2013-02-19 21:02:00,
2013-02-19 15:11:00,18.0,-99.9,-100.00,West,263,13.0,17.0,-999,0.00,,,0.26,,2013-02-19 21:11:00,
2013-02-19 15:22:00,18.0,-99.9,-100.00,West,263,13.0,17.0,-999,0.00,,,0.26,,2013-02-19 21:22:00,
2013-02-19 15:30:00,20.0,-99.9,-100.00,West,263,17.0,27.0,-999,0.00,,,0.21,,2013-02-19 21:30:00,
2013-02-19 15:42:00,19.0,-99.9,-100.00,West,261,17.0,28.0,-999,0.00,,,0.26,,2013-02-19 21:42:00,
2013-02-19 15:52:00,19.0,-99.9,-100.00,West,261,17.0,28.0,-999,0.00,,,0.26,,2013-02-19 21:52:00,
2013-02-19 16:02:00,20.0,-99.9,-100.00,West,263,17.0,27.0,-999,0.00,,,0.21,,2013-02-19 22:02:00,
2013-02-19 16:11:00,20.0,-99.9,-100.00,West,263,17.0,27.0,-999,0.00,,,0.21,,2013-02-19 22:11:00,
2013-02-19 16:22:00,20.0,-99.9,-100.00,West,263,17.0,27.0,-999,0.00,,,0.21,,2013-02-19 22:22:00,
2013-02-19 16:42:00,21.0,-99.9,-100.00,West,261,15.0,27.0,-999,0.00,,,0.16,,2013-02-19 22:42:00,
2013-02-19 16:52:00,21.0,-99.9,-100.00,West,261,15.0,27.0,-999,0.00,,,0.16,,2013-02-19 22:52:00,
2013-02-19 17:01:00,20.0,-99.9,-100.00,West,271,17.0,26.0,-999,0.00,,,0.11,,2013-02-19 23:01:00,
2013-02-19 17:11:00,20.0,-99.9,-100.00,West,271,17.0,26.0,-999,0.00,,,0.11,,2013-02-19 23:11:00,
2013-02-19 17:21:00,20.0,-99.9,-100.00,West,271,17.0,26.0,-999,0.00,,,0.11,,2013-02-19 23:21:00,
2013-02-19 17:32:00,20.0,-99.9,-100.00,West,268,11.0,19.0,-999,0.00,,,0.07,,2013-02-19 23:32:00,
2013-02-19 17:42:00,20.0,-99.9,-100.00,West,268,11.0,19.0,-999,0.00,,,0.07,,2013-02-19 23:42:00,
2013-02-19 17:52:00,20.0,-99.9,-100.00,West,268,11.0,19.0,-999,0.00,,,0.07,,2013-02-19 23:52:00,
2013-02-19 18:02:00,19.0,-99.9,-100.00,West,264,13.0,20.0,-999,0.00,,,0.05,,2013-02-20 00:02:00,
2013-02-19 18:12:00,19.0,-99.9,-100.00,West,264,13.0,20.0,-999,0.00,,,0.05,,2013-02-20 00:12:00,
2013-02-19 18:22:00,19.0,-99.9,-100.00,West,264,13.0,20.0,-999,0.00,,,0.05,,2013-02-20 00:22:00,
2013-02-19 18:32:00,18.0,-99.9,-100.00,West,260,10.0,15.0,-999,0.00,,,0.02,,2013-02-20 00:32:00,
2013-02-19 18:42:00,18.0,-99.9,-100.00,West,260,10.0,15.0,-999,0.00,,,0.02,,2013-02-20 00:42:00,
2013-02-19 18:52:00,18.0,-99.9,-100.00,West,260,10.0,15.0,-999,0.00,,,0.02,,2013-02-20 00:52:00,
2013-02-19 19:02:00,18.0,-99.9,-100.00,WSW,253,8.0,12.0,-999,0.00,,,0.00,,2013-02-20 01:02:00,
2013-02-19 19:11:00,18.0,-99.9,-100.00,WSW,253,8.0,12.0,-999,0.00,,,0.00,,2013-02-20 01:11:00,
2013-02-19 19:22:00,18.0,-99.9,-100.00,WSW,253,8.0,12.0,-999,0.00,,,0.00,,2013-02-20 01:22:00,
2013-02-19 19:32:00,17.0,-99.9,-100.00,West,260,6.0,8.0,-999,0.00,,,0.00,,2013-02-20 01:32:00,
2013-02-19 19:42:00,17.0,-99.9,-100.00,West,260,6.0,8.0,-999,0.00,,,0.00,,2013-02-20 01:42:00,
2013-02-19 19:52:00,17.0,-99.9,-100.00,West,260,6.0,8.0,-999,0.00,,,0.00,,2013-02-20 01:52:00,
2013-02-19 20:02:00,17.0,-99.9,-100.00,West,268,7.0,10.0,-999,0.00,,,0.00,,2013-02-20 02:02:00,
2013-02-19 20:11:00,17.0,-99.9,-100.00,West,268,7.0,10.0,-999,0.00,,,0.00,,2013-02-20 02:11:00,
2013-02-19 20:22:00,17.0,-99.9,-100.00,West,268,7.0,10.0,-999,0.00,,,0.00,,2013-02-20 02:22:00,
2013-02-19 20:32:00,16.0,-99.9,-100.00,WNW,286,6.0,8.0,-999,0.00,,,0.00,,2013-02-20 02:32:00,
2013-02-19 20:42:00,16.0,-99.9,-100.00,WNW,286,6.0,8.0,-999,0.00,,,0.00,,2013-02-20 02:42:00,
2013-02-19 20:52:00,16.0,-99.9,-100.00,WNW,286,6.0,8.0,-999,0.00,,,0.00,,2013-02-20 02:52:00,
2013-02-19 21:02:00,15.0,-99.9,-100.00,WNW,284,7.0,15.0,-999,0.00,,,0.00,,2013-02-20 03:02:00,
2013-02-19 21:12:00,15.0,-99.9,-100.00,WNW,284,7.0,15.0,-999,0.00,,,0.00,,2013-02-20 03:12:00,
2013-02-19 21:22:00,15.0,-99.9,-100.00,WNW,284,7.0,15.0,-999,0.00,,,0.00,,2013-02-20 03:22:00,
2013-02-19 21:32:00,14.0,-99.9,-100.00,NW,321,6.0,10.0,-999,0.00,,,0.00,,2013-02-20 03:32:00,
2013-02-19 21:42:00,14.0,-99.9,-100.00,NW,321,6.0,10.0,-999,0.00,,,0.00,,2013-02-20 03:42:00,
2013-02-19 21:52:00,14.0,-99.9,-100.00,NW,321,6.0,10.0,-999,0.00,,,0.00,,2013-02-20 03:52:00,
2013-02-19 22:02:00,13.0,-99.9,-100.00,NW,307,9.0,12.0,-999,0.00,,,0.00,,2013-02-20 04:02:00,
2013-02-19 22:11:00,13.0,-99.9,-100.00,NW,307,9.0,12.0,-999,0.00,,,0.00,,2013-02-20 04:11:00,
2013-02-19 22:22:00,13.0,-99.9,-100.00,NW,307,9.0,12.0,-999,0.00,,,0.00,,2013-02-20 04:22:00,
2013-02-19 22:30:00,10.0,-99.9,-100.00,NW,311,10.0,17.0,-999,0.00,,,0.00,,2013-02-20 04:30:00,
2013-02-19 22:32:00,11.0,-99.9,-100.00,WNW,300,11.0,17.0,-999,0.00,,,0.00,,2013-02-20 04:32:00,
2013-02-19 22:42:00,11.0,-99.9,-100.00,WNW,300,11.0,17.0,-999,0.00,,,0.00,,2013-02-20 04:42:00,
2013-02-19 22:52:00,11.0,-99.9,-100.00,WNW,300,11.0,17.0,-999,0.00,,,0.00,,2013-02-20 04:52:00,
2013-02-19 23:02:00,10.0,-99.9,-100.00,NW,311,10.0,17.0,-999,0.00,,,0.00,,2013-02-20 05:02:00,
2013-02-19 23:12:00,10.0,-99.9,-100.00,NW,311,10.0,17.0,-999,0.00,,,0.00,,2013-02-20 05:12:00,
2013-02-19 23:23:00,10.0,-99.9,-100.00,NW,311,10.0,17.0,-999,0.00,,,0.00,,2013-02-20 05:23:00,